createdAt,value
2023-04-23T00:03:44.870Z,23.7
2023-04-23T00:09:38.143Z,24.6
2023-04-23T00:15:30.101Z,25.6
2023-04-23T00:21:21.329Z,25.6
2023-04-23T00:27:12.133Z,25.3
2023-04-23T00:33:04.469Z,25.1
2023-04-23T00:38:39.777Z,24.8
2023-04-23T00:44:31.120Z,24.6
2023-04-23T00:50:23.081Z,23.4
2023-04-23T00:56:14.828Z,25.2
2023-04-23T01:02:05.079Z,25.7
2023-04-23T01:07:58.422Z,25.5
2023-04-23T01:13:49.356Z,25.3
2023-04-23T01:19:25.429Z,25
2023-04-23T01:25:16.866Z,24.8
2023-04-23T01:31:08.209Z,24.6
2023-04-23T01:37:00.025Z,23.6
2023-04-23T01:42:51.384Z,25.6
2023-04-23T01:48:45.796Z,25.7
2023-04-23T01:54:37.021Z,25.4
2023-04-23T02:00:12.317Z,25.2
2023-04-23T02:06:05.756Z,25
2023-04-23T02:11:57.228Z,24.8
2023-04-23T02:17:49.344Z,23.8
2023-04-23T02:23:41.482Z,24.6
2023-04-23T02:29:32.988Z,25.7
2023-04-23T02:35:25.151Z,25.1
2023-04-23T02:41:16.285Z,24.1
2023-04-23T02:47:07.381Z,23.6
2023-04-23T02:52:59.166Z,23.3
2023-04-23T02:58:50.956Z,23.1
2023-04-23T03:04:44.473Z,22.9
2023-04-23T03:10:19.981Z,23.4
2023-04-23T03:16:11.727Z,25.3
2023-04-23T03:22:03.172Z,25.7
2023-04-23T03:27:56.645Z,24.4
2023-04-23T03:33:48.154Z,24.1
2023-04-23T03:39:39.707Z,23.4
2023-04-23T03:45:16.162Z,23.3
2023-04-23T03:50:52.096Z,23
2023-04-23T03:56:28.114Z,22.9
2023-04-23T04:02:19.290Z,23.9
2023-04-23T04:08:14.299Z,25.6
2023-04-23T04:14:05.268Z,25.6
2023-04-23T04:19:59.318Z,24.1
2023-04-23T04:25:50.213Z,23.8
2023-04-23T04:31:41.407Z,23.4
2023-04-23T04:37:33.375Z,23.2
2023-04-23T04:43:24.939Z,22.9
2023-04-23T04:49:16.808Z,22.9
2023-04-23T04:55:08.415Z,23.8
2023-04-23T05:00:43.990Z,25.6
2023-04-23T05:06:37.371Z,25.7
2023-04-23T05:12:30.563Z,25.5
2023-04-23T05:18:22.237Z,25.3
2023-04-23T05:24:14.022Z,25
2023-04-23T05:30:05.941Z,24.8
2023-04-23T05:36:03.850Z,23.6
2023-04-23T05:41:56.646Z,25.4
2023-04-23T05:47:48.958Z,25.8
2023-04-23T05:53:42.565Z,25.6
2023-04-23T05:59:34.002Z,25.3
2023-04-23T06:05:15.119Z,25.1
2023-04-23T06:11:08.591Z,24.9
2023-04-23T06:17:01.694Z,23.8
2023-04-23T06:22:53.410Z,25.3
2023-04-23T06:28:45.101Z,25.8
2023-04-23T06:34:41.958Z,25.7
2023-04-23T06:40:38.921Z,25.4
2023-04-23T06:46:30.694Z,25.3
2023-04-23T06:52:22.833Z,25.1
2023-04-23T06:58:16.003Z,23.8
2023-04-23T07:04:08.632Z,25.4
2023-04-23T07:10:00.618Z,25.9
2023-04-23T07:15:52.240Z,25.8
2023-04-23T07:21:43.323Z,25.5
2023-04-23T07:27:34.405Z,25.3
2023-04-23T07:33:26.039Z,25.1
2023-04-23T07:39:17.744Z,23.9
2023-04-23T07:45:11.793Z,25.8
2023-04-23T07:51:04.382Z,25.9
2023-04-23T07:56:42.680Z,25.8
2023-04-23T08:02:34.712Z,25.6
2023-04-23T08:08:29.034Z,25.4
2023-04-23T08:14:20.559Z,25.1
2023-04-23T08:20:27.875Z,24.1
2023-04-23T08:26:19.838Z,25.9
2023-04-23T08:32:12.260Z,26.1
2023-04-23T08:38:00.238Z,25.8
2023-04-23T08:43:37.005Z,25.6
2023-04-23T08:49:13.425Z,25.4
2023-04-23T08:55:04.610Z,25.3
2023-04-23T09:00:41.550Z,24
2023-04-23T09:06:19.942Z,25.9
2023-04-23T09:12:14.037Z,26.1
2023-04-23T09:18:04.836Z,25.9
2023-04-23T09:23:40.401Z,25.8
2023-04-23T09:29:32.175Z,25.6
2023-04-23T09:35:08.992Z,25.4
2023-04-23T09:40:44.817Z,25.1
2023-04-23T09:46:37.127Z,24.9
2023-04-23T09:52:14.023Z,24.7
2023-04-23T09:58:06.376Z,24.5
2023-04-23T10:04:07.148Z,24.3
2023-04-23T10:11:37.494Z,24.1
2023-04-23T10:18:12.418Z,23.9
2023-04-23T10:24:15.042Z,23.6
2023-04-23T10:30:23.458Z,23.5
2023-04-23T10:36:44.478Z,23.3
2023-04-23T10:42:21.825Z,23.1
2023-04-23T10:48:23.844Z,23
2023-04-23T10:55:16.166Z,22.9
2023-04-23T11:01:07.249Z,22.8
2023-04-23T11:07:03.356Z,22.7
2023-04-23T11:13:02.576Z,22.6
2023-04-23T11:18:41.103Z,22.4
2023-04-23T11:24:34.656Z,22.4
2023-04-23T11:30:25.856Z,22.3
2023-04-23T11:36:27.665Z,22.3
2023-04-23T11:42:04.145Z,22.2
2023-04-23T11:47:25.132Z,22.1
2023-04-23T11:53:02.105Z,22
2023-04-23T11:58:55.847Z,22
2023-04-23T12:04:48.732Z,21.9
2023-04-23T12:10:49.511Z,21.9
2023-04-23T12:16:27.549Z,21.8
2023-04-23T12:22:19.249Z,21.8
2023-04-23T12:28:11.238Z,21.8
2023-04-23T12:34:03.128Z,21.8
2023-04-23T12:39:54.980Z,21.7
2023-04-23T12:45:46.062Z,21.6
2023-04-23T12:51:38.268Z,21.6
2023-04-23T12:57:30.380Z,21.6
2023-04-23T13:03:23.755Z,21.6
2023-04-23T13:09:16.559Z,21.6
2023-04-23T13:14:53.332Z,21.5
2023-04-23T13:20:45.802Z,21.4
2023-04-23T13:26:39.691Z,21.4
2023-04-23T13:32:16.238Z,21.4
2023-04-23T13:37:52.039Z,21.4
2023-04-23T13:43:57.944Z,21.4
2023-04-23T13:49:50.246Z,21.4
2023-04-23T13:55:58.365Z,21.4
2023-04-23T14:01:47.584Z,21.4
2023-04-23T14:07:25.349Z,21.4
2023-04-23T14:13:02.402Z,21.4
2023-04-23T14:18:38.893Z,21.4
2023-04-23T14:24:34.153Z,21.4
2023-04-23T14:30:40.421Z,21.4
2023-04-23T14:36:47.392Z,21.4
2023-04-23T14:42:38.887Z,21.4
2023-04-23T14:48:42.561Z,21.3
2023-04-23T14:54:18.750Z,21.3
2023-04-23T15:00:09.848Z,21.3
2023-04-23T15:06:05.388Z,21.3
2023-04-23T15:11:57.132Z,21.3
2023-04-23T15:18:00.241Z,21.3
2023-04-23T15:23:51.877Z,21.3
2023-04-23T15:29:43.951Z,21.3
2023-04-23T15:35:20.912Z,21.2
2023-04-23T15:41:13.190Z,21.3
2023-04-23T15:47:04.795Z,21.3
2023-04-23T15:52:56.520Z,21.2
2023-04-23T15:58:49.140Z,21.2
2023-04-23T16:04:59.935Z,21.3
2023-04-23T16:10:53.234Z,21.2
2023-04-23T16:16:45.154Z,21.3
2023-04-23T16:22:38.286Z,21.2
2023-04-23T16:28:30.345Z,21.2
2023-04-23T16:34:42.656Z,21.2
2023-04-23T16:40:33.798Z,21.3
2023-04-23T16:46:26.053Z,21.3
2023-04-23T16:52:19.796Z,21.3
2023-04-23T16:58:12.992Z,21.2
2023-04-23T17:04:06.961Z,21.3
2023-04-23T17:10:00.537Z,21.3
2023-04-23T17:15:38.373Z,21.3
2023-04-23T17:21:15.939Z,21.2
2023-04-23T17:27:08.821Z,21.2
2023-04-23T17:33:02.642Z,21.2
2023-04-23T17:39:02.180Z,21.2
2023-04-23T17:44:55.396Z,21.2
2023-04-23T17:50:51.521Z,21.2
2023-04-23T18:02:28.221Z,21.2
2023-04-23T19:00:05.576Z,21.2
2023-04-23T19:06:26.488Z,21.2
2023-04-23T19:17:42.350Z,21.2
2023-04-23T19:29:14.147Z,21.2
2023-04-23T19:35:07.860Z,21.2
2023-04-23T19:46:23.622Z,21.2
2023-04-23T19:57:41.674Z,21.2
2023-04-23T20:08:58.243Z,21.1
2023-04-23T20:14:35.463Z,21.1
2023-04-23T20:25:38.468Z,21.1
2023-04-23T20:31:15.619Z,21.1
2023-04-23T20:36:52.740Z,21.1
2023-04-23T20:42:45.037Z,21.1
2023-04-23T20:48:21.042Z,21.1
2023-04-23T20:53:56.888Z,21.1
2023-04-23T20:59:48.535Z,21.1
2023-04-23T21:05:42.232Z,22
2023-04-23T21:11:33.771Z,24.6
2023-04-23T21:17:25.712Z,25.9
2023-04-23T21:23:17.293Z,26.1
2023-04-23T21:29:11.133Z,25.9
2023-04-23T21:34:47.515Z,23.8
2023-04-23T21:40:38.872Z,25.4
2023-04-23T21:46:30.581Z,26.3
2023-04-23T21:52:22.688Z,26.3
2023-04-23T21:58:30.298Z,26.1
2023-04-23T22:04:43.114Z,24.8
2023-04-23T22:10:34.255Z,24.8
2023-04-23T22:16:53.408Z,26.3
2023-04-23T22:22:44.978Z,26.4
2023-04-23T22:28:35.403Z,26.2
2023-04-23T22:34:11.752Z,25.9
2023-04-23T22:40:03.543Z,24.8
2023-04-23T22:45:41.098Z,24.8
2023-04-23T22:51:19.542Z,26.4
2023-04-23T22:56:40.199Z,26.6
2023-04-23T23:02:16.076Z,26.4
2023-04-23T23:07:37.530Z,26.1
2023-04-23T23:13:28.479Z,25.8
2023-04-23T23:19:04.753Z,24.2
2023-04-23T23:24:55.967Z,25.9
2023-04-23T23:30:47.351Z,26.7
2023-04-23T23:36:38.687Z,26.6
2023-04-23T23:42:32.437Z,26.3
2023-04-23T23:48:24.786Z,25.9
2023-04-23T23:54:00.952Z,25.1
2023-04-23T23:59:37.416Z,24.8
